createdAt,value
2018-07-03T00:00:45.530Z,28.00
2018-07-03T00:03:19.569Z,28.80
2018-07-03T00:05:52.245Z,31.20
2018-07-03T00:08:25.232Z,33.00
2018-07-03T00:10:58.564Z,30.00
2018-07-03T00:13:31.996Z,31.60
2018-07-03T00:16:04.929Z,33.20
2018-07-03T00:18:37.571Z,33.20
2018-07-03T00:21:10.398Z,32.00
2018-07-03T00:23:43.125Z,35.20
2018-07-03T00:26:16.070Z,30.80
2018-07-03T00:28:48.408Z,33.20
2018-07-03T00:31:21.706Z,31.60
2018-07-03T00:33:54.883Z,26.40
2018-07-03T00:36:27.113Z,36.00
2018-07-03T00:39:00.254Z,31.20
2018-07-03T00:41:33.324Z,31.60
2018-07-03T00:44:06.389Z,34.20
2018-07-03T00:46:39.954Z,30.60
2018-07-03T00:49:12.935Z,33.80
2018-07-03T00:51:45.974Z,39.00
2018-07-03T00:54:18.814Z,29.40
2018-07-03T00:56:51.929Z,30.40
2018-07-03T00:59:25.148Z,38.60
2018-07-03T01:01:58.439Z,33.60
2018-07-03T01:04:31.773Z,38.60
2018-07-03T01:07:05.103Z,37.20
2018-07-03T01:09:37.771Z,40.00
2018-07-03T01:12:10.610Z,36.60
2018-07-03T01:14:43.094Z,38.00
2018-07-03T01:17:15.864Z,32.60
2018-07-03T01:19:48.739Z,36.40
2018-07-03T01:22:21.825Z,24.20
2018-07-03T01:24:54.464Z,28.00
2018-07-03T01:27:27.617Z,35.40
2018-07-03T01:30:00.528Z,37.40
2018-07-03T01:32:33.550Z,37.80
2018-07-03T01:35:06.703Z,40.00
2018-07-03T01:37:39.480Z,41.00
2018-07-03T01:40:12.343Z,35.60
2018-07-03T01:42:45.777Z,38.40
2018-07-03T01:45:18.961Z,43.20
2018-07-03T01:47:52.031Z,48.60
2018-07-03T01:50:25.369Z,44.20
2018-07-03T01:52:58.780Z,46.80
2018-07-03T01:55:31.639Z,43.40
2018-07-03T01:58:04.703Z,43.80
2018-07-03T02:00:37.689Z,40.00
2018-07-03T02:03:10.094Z,45.40
2018-07-03T02:05:43.744Z,46.00
2018-07-03T02:08:16.759Z,39.00
2018-07-03T02:10:49.824Z,45.60
2018-07-03T02:13:22.235Z,43.40
2018-07-03T02:15:54.941Z,45.60
2018-07-03T02:18:27.931Z,45.20
2018-07-03T02:21:00.645Z,48.80
2018-07-03T02:23:33.897Z,45.80
2018-07-03T02:26:07.036Z,46.40
2018-07-03T02:28:40.155Z,46.20
2018-07-03T02:31:13.285Z,44.00
2018-07-03T02:33:46.290Z,47.40
2018-07-03T02:36:19.175Z,50.40
2018-07-03T02:38:52.527Z,45.60
2018-07-03T02:41:25.372Z,45.60
2018-07-03T02:43:58.782Z,48.40
2018-07-03T02:46:32.009Z,42.60
2018-07-03T02:49:04.812Z,47.40
2018-07-03T02:51:37.392Z,39.80
2018-07-03T02:54:10.806Z,49.60
2018-07-03T02:56:43.727Z,47.00
2018-07-03T02:59:16.195Z,45.60
2018-07-03T03:01:49.194Z,46.60
2018-07-03T03:04:22.453Z,48.60
2018-07-03T03:06:55.836Z,45.60
2018-07-03T03:09:29.028Z,45.80
2018-07-03T03:12:01.686Z,41.20
2018-07-03T03:14:34.919Z,46.60
2018-07-03T03:17:08.324Z,45.60
2018-07-03T03:19:42.491Z,47.60
2018-07-03T03:22:15.414Z,46.20
2018-07-03T03:24:48.665Z,49.60
2018-07-03T03:27:21.426Z,46.20
2018-07-03T03:29:55.599Z,50.20
2018-07-03T03:32:28.671Z,48.20
2018-07-03T03:35:01.820Z,47.20
2018-07-03T03:37:34.887Z,49.80
2018-07-03T03:40:09.234Z,48.00
2018-07-03T03:42:42.151Z,47.40
2018-07-03T03:45:16.315Z,50.00
2018-07-03T03:47:49.088Z,42.20
2018-07-03T03:50:21.833Z,42.60
2018-07-03T03:52:54.678Z,45.60
2018-07-03T03:55:27.955Z,45.20
2018-07-03T03:58:00.578Z,44.40
2018-07-03T04:00:33.626Z,46.00
2018-07-03T04:03:06.668Z,47.80
2018-07-03T04:05:39.665Z,40.60
2018-07-03T04:08:12.667Z,49.60
2018-07-03T04:10:45.171Z,32.60
2018-07-03T04:13:17.903Z,45.80
2018-07-03T04:15:51.190Z,49.60
2018-07-03T04:18:41.009Z,50.80
2018-07-03T04:21:14.307Z,48.00
2018-07-03T04:23:47.053Z,47.20
2018-07-03T04:26:19.151Z,48.20
2018-07-03T04:28:52.088Z,48.20
2018-07-03T04:31:25.352Z,47.20
2018-07-03T04:33:57.549Z,47.00
2018-07-03T04:36:30.514Z,46.20
2018-07-03T04:39:03.442Z,46.20
2018-07-03T04:41:36.178Z,42.80
2018-07-03T04:44:08.711Z,46.00
2018-07-03T04:46:41.763Z,46.80
2018-07-03T04:49:14.133Z,46.80
2018-07-03T04:51:46.745Z,49.20
2018-07-03T04:54:19.937Z,49.80
2018-07-03T04:56:52.544Z,41.20
2018-07-03T04:59:25.154Z,44.20
2018-07-03T05:01:58.129Z,43.20
2018-07-03T05:04:31.139Z,43.00
2018-07-03T05:07:04.135Z,50.20
2018-07-03T05:09:36.890Z,45.60
2018-07-03T05:12:09.987Z,47.80
2018-07-03T05:14:42.006Z,44.60
2018-07-03T05:17:15.364Z,48.40
2018-07-03T05:19:48.408Z,48.40
2018-07-03T05:22:21.043Z,43.20
2018-07-03T05:24:53.664Z,46.00
2018-07-03T05:27:26.612Z,45.00
2018-07-03T05:29:59.606Z,48.60
2018-07-03T05:32:32.889Z,43.60
2018-07-03T05:35:07.162Z,46.40
2018-07-03T05:37:40.340Z,45.60
2018-07-03T05:40:13.830Z,46.80
2018-07-03T05:42:46.389Z,46.40
2018-07-03T05:45:19.222Z,46.60
2018-07-03T05:47:51.935Z,44.40
2018-07-03T05:50:24.624Z,47.20
2018-07-03T05:52:57.985Z,39.60
2018-07-03T05:55:31.263Z,44.20
2018-07-03T05:58:04.566Z,43.00
2018-07-03T06:00:39.490Z,51.20
2018-07-03T06:03:12.504Z,44.40
2018-07-03T06:05:45.216Z,41.00
2018-07-03T06:08:18.013Z,41.00
2018-07-03T06:10:51.038Z,47.00
2018-07-03T06:13:24.182Z,40.40
2018-07-03T06:15:57.072Z,37.20
2018-07-03T06:18:30.058Z,42.40
2018-07-03T06:21:02.675Z,41.60
2018-07-03T06:23:36.036Z,37.00
2018-07-03T06:26:07.969Z,43.20
2018-07-03T06:28:41.270Z,44.60
2018-07-03T06:31:13.844Z,38.00
2018-07-03T06:33:46.737Z,44.00
2018-07-03T06:36:19.534Z,36.00
2018-07-03T06:38:52.839Z,40.00
2018-07-03T06:41:25.883Z,41.20
2018-07-03T06:43:58.992Z,37.20
2018-07-03T06:46:31.136Z,37.20
2018-07-03T06:49:04.455Z,42.60
2018-07-03T06:51:36.897Z,38.20
2018-07-03T06:54:10.580Z,40.20
2018-07-03T06:56:43.702Z,43.00
2018-07-03T06:59:16.200Z,40.20
2018-07-03T07:01:48.909Z,43.20
2018-07-03T07:04:21.221Z,41.80
2018-07-03T07:06:54.387Z,35.40
2018-07-03T07:09:27.622Z,38.20
2018-07-03T07:12:00.931Z,40.00
2018-07-03T07:14:33.647Z,39.40
2018-07-03T07:17:05.962Z,35.40
2018-07-03T07:19:39.174Z,34.40
2018-07-03T07:22:12.168Z,37.60
2018-07-03T07:24:45.547Z,37.20
2018-07-03T07:27:18.946Z,39.20
2018-07-03T07:29:51.975Z,38.40
2018-07-03T07:32:25.024Z,34.60
2018-07-03T07:34:58.061Z,40.80
2018-07-03T07:37:30.621Z,38.60
2018-07-03T07:40:03.884Z,35.80
2018-07-03T07:42:36.881Z,40.20
2018-07-03T07:45:09.688Z,34.80
2018-07-03T07:47:41.785Z,36.00
2018-07-03T07:50:14.208Z,39.00
2018-07-03T07:52:47.104Z,36.20
2018-07-03T07:55:21.367Z,37.00
2018-07-03T07:57:54.108Z,33.40
2018-07-03T08:00:27.141Z,43.80
2018-07-03T08:03:00.003Z,39.00
2018-07-03T08:05:34.015Z,36.20
2018-07-03T08:08:08.312Z,39.60
2018-07-03T08:10:41.067Z,37.60
2018-07-03T08:13:14.094Z,39.00
2018-07-03T08:15:47.018Z,40.20
2018-07-03T08:18:19.137Z,41.20
2018-07-03T08:20:51.442Z,36.40
2018-07-03T08:23:24.336Z,35.80
2018-07-03T08:25:57.507Z,34.80
2018-07-03T08:28:30.697Z,42.80
2018-07-03T08:31:04.056Z,38.00
2018-07-03T08:33:36.341Z,43.00
2018-07-03T08:36:09.690Z,39.80
2018-07-03T08:38:42.597Z,38.80
2018-07-03T08:41:15.970Z,41.60
2018-07-03T08:43:47.964Z,36.20
2018-07-03T08:46:20.859Z,36.00
2018-07-03T08:48:53.973Z,45.00
2018-07-03T08:51:26.278Z,41.00
2018-07-03T08:53:59.296Z,38.40
2018-07-03T08:56:32.956Z,46.20
2018-07-03T08:59:07.402Z,41.60
2018-07-03T09:01:40.002Z,40.40
2018-07-03T09:04:12.975Z,44.20
2018-07-03T09:06:46.278Z,43.20
2018-07-03T09:09:20.064Z,42.20
2018-07-03T09:11:53.229Z,40.40
2018-07-03T09:14:26.925Z,39.80
2018-07-03T09:17:05.424Z,38.60
2018-07-03T09:19:39.569Z,41.80
2018-07-03T09:22:13.838Z,36.20
2018-07-03T09:24:46.975Z,42.00
2018-07-03T09:27:20.227Z,40.00
2018-07-03T09:29:53.359Z,34.60
2018-07-03T09:32:25.695Z,36.80
2018-07-03T09:34:58.444Z,39.00
2018-07-03T09:37:32.928Z,42.60
2018-07-03T09:40:05.949Z,38.20
2018-07-03T09:42:39.134Z,43.20
2018-07-03T09:45:12.620Z,38.40
2018-07-03T09:47:46.436Z,40.40
2018-07-03T09:50:19.605Z,37.20
2018-07-03T09:52:53.361Z,36.00
2018-07-03T09:55:26.034Z,38.60
2018-07-03T09:58:00.110Z,40.60
2018-07-03T10:00:38.923Z,37.20
2018-07-03T10:03:12.256Z,35.60
2018-07-03T10:05:45.282Z,36.40
2018-07-03T10:08:18.758Z,40.20
2018-07-03T10:10:52.022Z,34.00
2018-07-03T10:13:25.720Z,36.60
2018-07-03T10:15:58.459Z,39.40
2018-07-03T10:18:31.315Z,42.80
2018-07-03T10:21:04.155Z,38.20
2018-07-03T10:23:37.630Z,38.20
2018-07-03T10:26:11.292Z,37.80
2018-07-03T10:28:45.144Z,37.60
2018-07-03T10:31:18.632Z,36.20
2018-07-03T10:33:51.569Z,38.00
2018-07-03T10:36:24.621Z,42.80
2018-07-03T10:38:57.305Z,38.20
2018-07-03T10:41:30.181Z,39.80
2018-07-03T10:44:05.428Z,39.20
2018-07-03T10:46:38.099Z,35.00
2018-07-03T10:49:10.975Z,37.60
2018-07-03T10:51:44.158Z,37.20
2018-07-03T10:54:18.271Z,33.40
2018-07-03T10:56:53.880Z,42.20
2018-07-03T10:59:29.873Z,38.60
2018-07-03T11:02:03.408Z,36.40
2018-07-03T11:04:37.672Z,42.60
2018-07-03T11:07:11.699Z,39.80
2018-07-03T11:09:44.572Z,33.00
2018-07-03T11:12:17.490Z,38.40
2018-07-03T11:14:50.307Z,35.80
2018-07-03T11:17:25.596Z,43.80
2018-07-03T11:19:59.120Z,34.40
2018-07-03T11:22:32.430Z,37.40
2018-07-03T11:25:05.517Z,38.40
2018-07-03T11:27:38.458Z,39.60
2018-07-03T11:30:12.929Z,34.00
2018-07-03T11:32:45.952Z,36.00
2018-07-03T11:35:18.841Z,39.40
2018-07-03T11:37:51.692Z,36.00
2018-07-03T11:40:26.380Z,33.60
2018-07-03T11:43:03.964Z,30.60
2018-07-03T11:45:40.891Z,33.20
2018-07-03T11:48:16.590Z,29.80
2018-07-03T11:50:52.175Z,32.20
2018-07-03T11:53:25.753Z,33.60
2018-07-03T11:55:59.031Z,36.60
2018-07-03T11:58:33.905Z,33.80
2018-07-03T12:01:07.036Z,33.00
2018-07-03T12:03:39.172Z,27.80
2018-07-03T12:06:12.351Z,35.20
2018-07-03T12:08:45.816Z,35.40
2018-07-03T12:11:18.767Z,35.60
2018-07-03T12:13:51.672Z,38.80
2018-07-03T12:16:26.973Z,33.40
2018-07-03T12:19:00.413Z,37.60
2018-07-03T12:21:34.004Z,34.20
2018-07-03T12:24:07.042Z,37.00
2018-07-03T12:26:43.992Z,35.40
2018-07-03T12:29:17.102Z,34.80
2018-07-03T12:31:53.266Z,38.60
2018-07-03T12:34:25.715Z,34.60
2018-07-03T12:36:58.761Z,38.20
2018-07-03T12:39:31.576Z,31.60
2018-07-03T12:42:04.639Z,40.20
2018-07-03T12:44:37.640Z,39.80
2018-07-03T12:47:10.079Z,34.20
2018-07-03T12:49:42.909Z,39.40
2018-07-03T12:52:16.575Z,33.40
2018-07-03T12:54:50.645Z,35.80
2018-07-03T12:57:24.089Z,30.40
2018-07-03T12:59:59.155Z,32.80
2018-07-03T13:02:32.100Z,31.80
2018-07-03T13:05:04.367Z,31.40
2018-07-03T13:07:38.103Z,31.80
2018-07-03T13:10:13.688Z,33.80
2018-07-03T13:12:45.791Z,33.80
2018-07-03T13:15:19.247Z,34.00
2018-07-03T13:17:51.513Z,37.60
2018-07-03T13:20:24.265Z,30.80
2018-07-03T13:22:57.308Z,35.40
2018-07-03T13:25:30.334Z,36.60
2018-07-03T13:28:05.249Z,37.40
2018-07-03T13:30:39.097Z,37.80
2018-07-03T13:33:11.748Z,33.00
2018-07-03T13:35:43.683Z,35.40
2018-07-03T13:38:17.053Z,37.80
2018-07-03T13:40:50.239Z,30.20
2018-07-03T13:43:23.869Z,32.40
2018-07-03T13:45:57.287Z,37.80
2018-07-03T13:48:29.994Z,39.80
2018-07-03T13:51:03.733Z,35.00
2018-07-03T13:53:40.712Z,35.20
2018-07-03T13:56:17.625Z,40.20
2018-07-03T13:58:52.890Z,39.60
2018-07-03T14:01:26.717Z,38.20
2018-07-03T14:04:01.087Z,41.40
2018-07-03T14:06:35.091Z,40.60
2018-07-03T14:09:09.388Z,39.60
2018-07-03T14:11:41.880Z,46.80
2018-07-03T14:14:15.723Z,49.80
2018-07-03T14:16:49.864Z,43.60
2018-07-03T14:19:24.238Z,46.40
2018-07-03T14:21:57.359Z,44.40
2018-07-03T14:24:31.059Z,52.40
2018-07-03T14:27:04.628Z,51.40
2018-07-03T14:29:38.032Z,54.00
2018-07-03T14:32:12.401Z,53.80
2018-07-03T14:34:46.112Z,54.20
2018-07-03T14:37:18.898Z,54.40
2018-07-03T14:39:51.979Z,53.80
2018-07-03T14:42:25.084Z,57.80
2018-07-03T14:44:58.235Z,54.80
2018-07-03T14:47:31.044Z,53.20
2018-07-03T14:50:04.648Z,52.60
2018-07-03T14:52:36.506Z,49.60
2018-07-03T14:55:08.981Z,49.00
2018-07-03T14:57:41.782Z,49.20
2018-07-03T15:00:14.962Z,46.80
2018-07-03T15:02:47.728Z,39.60
2018-07-03T15:05:20.385Z,38.40
2018-07-03T15:07:52.988Z,35.40
2018-07-03T15:10:27.152Z,44.20
2018-07-03T15:12:59.559Z,40.80
2018-07-03T15:15:32.396Z,44.20
2018-07-03T15:18:04.674Z,43.80
2018-07-03T15:20:37.698Z,43.40
2018-07-03T15:23:10.698Z,46.40
2018-07-03T15:25:44.094Z,49.40
2018-07-03T15:28:16.720Z,49.80
2018-07-03T15:30:49.807Z,45.00
2018-07-03T15:33:22.121Z,51.40
2018-07-03T15:35:54.832Z,46.60
2018-07-03T15:38:27.500Z,35.60
2018-07-03T15:41:00.217Z,37.40
2018-07-03T15:43:33.516Z,43.80
2018-07-03T15:46:06.498Z,46.80
2018-07-03T15:48:39.362Z,42.60
2018-07-03T15:51:11.830Z,43.80
2018-07-03T15:53:44.675Z,45.00
2018-07-03T15:56:17.474Z,40.20
2018-07-03T15:58:50.572Z,41.40
2018-07-03T16:01:23.306Z,34.60
2018-07-03T16:04:10.843Z,42.60
2018-07-03T16:07:02.770Z,39.80
2018-07-03T16:09:36.058Z,41.80
2018-07-03T16:12:09.710Z,44.40
2018-07-03T16:14:42.708Z,37.20
2018-07-03T16:17:16.226Z,41.80
2018-07-03T16:19:53.193Z,40.60
2018-07-03T16:22:26.019Z,41.80
2018-07-03T16:24:59.187Z,40.00
2018-07-03T16:27:33.059Z,42.40
2018-07-03T16:30:07.519Z,43.00
2018-07-03T16:32:40.540Z,40.00
2018-07-03T16:35:13.806Z,38.60
2018-07-03T16:37:46.535Z,40.80
2018-07-03T16:40:19.828Z,35.80
2018-07-03T16:42:52.560Z,41.20
2018-07-03T16:45:24.860Z,37.00
2018-07-03T16:47:57.491Z,34.20
2018-07-03T16:50:30.028Z,40.20
2018-07-03T16:53:02.792Z,37.80
2018-07-03T16:55:35.074Z,32.40
2018-07-03T16:58:08.044Z,30.60
2018-07-03T17:00:40.400Z,31.20
2018-07-03T17:03:13.073Z,35.80
2018-07-03T17:05:45.883Z,34.80
2018-07-03T17:08:18.562Z,30.00
2018-07-03T17:10:51.512Z,31.00
2018-07-03T17:13:24.776Z,29.80
2018-07-03T17:15:57.747Z,27.40
2018-07-03T17:18:32.063Z,29.40
2018-07-03T17:21:04.673Z,29.60
2018-07-03T17:23:37.537Z,29.20
2018-07-03T17:26:10.365Z,27.20
2018-07-03T17:28:42.953Z,21.60
2018-07-03T17:31:16.013Z,26.80
2018-07-03T17:33:48.893Z,28.80
2018-07-03T17:36:22.202Z,27.80
2018-07-03T17:38:55.023Z,25.80
2018-07-03T17:41:36.947Z,24.80
2018-07-03T17:44:20.237Z,27.20
2018-07-03T17:46:53.134Z,24.40
2018-07-03T17:49:25.947Z,24.40
2018-07-03T17:51:58.683Z,26.00
2018-07-03T17:54:31.865Z,24.40
2018-07-03T17:57:04.147Z,23.80
2018-07-03T17:59:36.985Z,21.20
2018-07-03T18:02:09.187Z,24.20
2018-07-03T18:04:41.632Z,20.00
2018-07-03T18:07:14.240Z,18.80
2018-07-03T18:09:46.934Z,21.00
2018-07-03T18:12:19.661Z,24.40
2018-07-03T18:14:52.027Z,20.40
2018-07-03T18:17:24.136Z,20.60
2018-07-03T18:19:56.869Z,19.80
2018-07-03T18:22:29.585Z,19.40
2018-07-03T18:25:02.688Z,26.80
2018-07-03T18:27:35.311Z,22.20
2018-07-03T18:30:07.994Z,20.20
2018-07-03T18:32:40.756Z,17.80
2018-07-03T18:35:13.431Z,20.20
2018-07-03T18:37:46.086Z,20.00
2018-07-03T18:40:18.635Z,20.40
2018-07-03T18:42:51.659Z,21.00
2018-07-03T18:45:24.593Z,18.00
2018-07-03T18:47:57.067Z,22.40
2018-07-03T18:50:29.928Z,19.40
2018-07-03T18:53:02.418Z,18.20
2018-07-03T18:55:35.379Z,18.20
2018-07-03T18:58:07.479Z,17.60
2018-07-03T19:00:40.187Z,16.20
2018-07-03T19:03:12.805Z,18.40
2018-07-03T19:05:45.828Z,19.80
2018-07-03T19:08:18.678Z,23.80
2018-07-03T19:10:51.523Z,17.80
2018-07-03T19:13:24.172Z,19.60
2018-07-03T19:15:57.264Z,17.80
2018-07-03T19:18:29.913Z,16.60
2018-07-03T19:21:02.406Z,18.00
2018-07-03T19:23:34.627Z,17.80
2018-07-03T19:26:07.987Z,14.20
2018-07-03T19:28:41.725Z,18.80
2018-07-03T19:31:14.844Z,17.40
2018-07-03T19:33:48.708Z,20.20
2018-07-03T19:36:21.423Z,19.40
2018-07-03T19:38:54.219Z,21.60
2018-07-03T19:41:27.028Z,18.20
2018-07-03T19:43:59.807Z,19.40
2018-07-03T19:46:32.707Z,20.60
2018-07-03T19:49:04.863Z,20.20
2018-07-03T19:51:37.953Z,18.20
2018-07-03T19:54:10.195Z,19.20
2018-07-03T19:56:42.875Z,16.60
2018-07-03T19:59:15.214Z,18.40
2018-07-03T20:01:48.078Z,18.20
2018-07-03T20:04:20.518Z,17.80
2018-07-03T20:06:53.766Z,17.40
2018-07-03T20:09:26.729Z,14.00
2018-07-03T20:11:59.499Z,18.20
2018-07-03T20:14:31.690Z,19.80
2018-07-03T20:17:03.811Z,19.20
2018-07-03T20:19:35.898Z,17.80
2018-07-03T20:22:09.093Z,19.40
2018-07-03T20:24:41.708Z,17.40
2018-07-03T20:27:14.121Z,17.80
2018-07-03T20:29:46.633Z,17.20
2018-07-03T20:32:19.758Z,19.20
2018-07-03T20:34:51.954Z,21.40
2018-07-03T20:37:24.770Z,20.20
2018-07-03T20:39:57.483Z,16.60
2018-07-03T20:42:30.418Z,17.20
2018-07-03T20:45:03.258Z,17.80
2018-07-03T20:47:35.696Z,18.20
2018-07-03T20:50:08.240Z,17.60
2018-07-03T20:52:40.753Z,17.40
2018-07-03T20:55:13.938Z,15.00
2018-07-03T20:57:47.157Z,15.40
2018-07-03T21:00:19.891Z,17.00
2018-07-03T21:02:52.273Z,18.00
2018-07-03T21:05:24.805Z,17.00
2018-07-03T21:07:57.237Z,17.40
2018-07-03T21:10:29.553Z,14.80
2018-07-03T21:13:02.927Z,15.80
2018-07-03T21:15:35.340Z,16.60
2018-07-03T21:18:07.749Z,16.00
2018-07-03T21:20:40.211Z,16.40
2018-07-03T21:23:12.975Z,17.40
2018-07-03T21:25:46.068Z,15.00
2018-07-03T21:28:18.781Z,16.60
2018-07-03T21:30:52.609Z,19.60
2018-07-03T21:33:25.765Z,16.60
2018-07-03T21:35:58.134Z,16.60
2018-07-03T21:38:30.972Z,16.80
2018-07-03T21:41:03.277Z,16.20
2018-07-03T21:43:36.362Z,18.00
2018-07-03T21:46:09.072Z,16.80
2018-07-03T21:48:42.265Z,19.00
2018-07-03T21:51:14.651Z,16.20
2018-07-03T21:53:46.956Z,16.40
2018-07-03T21:56:19.387Z,21.20
2018-07-03T21:58:52.288Z,20.80
2018-07-03T22:01:24.956Z,16.20
2018-07-03T22:03:57.475Z,16.40
2018-07-03T22:06:29.735Z,20.20
2018-07-03T22:09:02.551Z,20.80
2018-07-03T22:11:34.946Z,18.00
2018-07-03T22:14:07.526Z,13.00
2018-07-03T22:16:39.890Z,15.20
2018-07-03T22:19:12.703Z,17.20
2018-07-03T22:21:45.513Z,20.00
2018-07-03T22:24:18.628Z,14.60
2018-07-03T22:26:51.597Z,14.80
2018-07-03T22:29:23.709Z,19.60
2018-07-03T22:31:56.571Z,17.60
2018-07-03T22:34:29.612Z,21.40
2018-07-03T22:37:02.542Z,20.40
2018-07-03T22:39:35.379Z,19.60
2018-07-03T22:42:07.595Z,26.00
2018-07-03T22:44:40.226Z,21.20
2018-07-03T22:47:13.143Z,21.60
2018-07-03T22:49:45.364Z,26.40
2018-07-03T22:52:18.466Z,23.80
2018-07-03T22:54:51.139Z,27.20
2018-07-03T22:57:23.631Z,25.20
2018-07-03T22:59:56.669Z,25.80
2018-07-03T23:02:29.044Z,20.40
2018-07-03T23:05:01.741Z,22.00
2018-07-03T23:07:34.573Z,23.00
2018-07-03T23:10:07.033Z,26.60
2018-07-03T23:12:39.234Z,21.40
2018-07-03T23:15:12.258Z,21.60
2018-07-03T23:17:45.169Z,21.00
2018-07-03T23:20:17.084Z,20.60
2018-07-03T23:22:49.751Z,25.20
2018-07-03T23:25:22.520Z,24.60
2018-07-03T23:27:55.542Z,23.40
2018-07-03T23:30:27.807Z,20.80
2018-07-03T23:33:00.976Z,24.60
2018-07-03T23:35:33.384Z,27.80
2018-07-03T23:38:06.259Z,25.80
2018-07-03T23:40:38.724Z,26.40
2018-07-03T23:43:11.623Z,25.40
2018-07-03T23:45:54.986Z,29.00
2018-07-03T23:48:36.591Z,22.00
2018-07-03T23:51:18.689Z,23.80
2018-07-03T23:54:00.137Z,23.80
2018-07-03T23:56:42.062Z,25.60
2018-07-03T23:59:23.658Z,24.00
